sensor_id;sensor_type;location;lat;lon;timestamp;P1;durP1;ratioP1;P2;durP2;ratioP2
42834;SDS011;29335;50.526;30.458;2022-11-21T01:02:53;111.75;;;32.40;;
42834;SDS011;29335;50.526;30.458;2022-11-21T01:05:20;172.85;;;35.95;;
42834;SDS011;29335;50.526;30.458;2022-11-21T01:07:49;233.63;;;37.42;;
42834;SDS011;29335;50.526;30.458;2022-11-21T01:15:21;178.48;;;32.28;;
42834;SDS011;29335;50.526;30.458;2022-11-21T01:17:49;277.73;;;38.42;;
42834;SDS011;29335;50.526;30.458;2022-11-21T01:20:14;158.48;;;29.15;;
42834;SDS011;29335;50.526;30.458;2022-11-21T01:22:40;253.80;;;36.00;;
42834;SDS011;29335;50.526;30.458;2022-11-21T01:25:06;164.32;;;29.63;;
42834;SDS011;29335;50.526;30.458;2022-11-21T01:27:32;420.90;;;43.65;;
42834;SDS011;29335;50.526;30.458;2022-11-21T01:30:00;260.85;;;35.72;;
42834;SDS011;29335;50.526;30.458;2022-11-21T01:32:26;266.67;;;35.47;;
42834;SDS011;29335;50.526;30.458;2022-11-21T01:34:51;279.80;;;38.55;;
42834;SDS011;29335;50.526;30.458;2022-11-21T01:37:17;576.47;;;59.08;;
42834;SDS011;29335;50.526;30.458;2022-11-21T01:39:42;470.35;;;50.53;;
42834;SDS011;29335;50.526;30.458;2022-11-21T01:42:09;559.60;;;55.70;;
42834;SDS011;29335;50.526;30.458;2022-11-21T01:44:50;572.00;;;58.75;;
42834;SDS011;29335;50.526;30.458;2022-11-21T01:47:20;335.10;;;37.35;;
42834;SDS011;29335;50.526;30.458;2022-11-21T01:49:48;1129.85;;;90.78;;
42834;SDS011;29335;50.526;30.458;2022-11-21T01:52:24;270.30;;;37.88;;
42834;SDS011;29335;50.526;30.458;2022-11-21T01:54:59;360.00;;;40.90;;
42834;SDS011;29335;50.526;30.458;2022-11-21T01:57:29;287.05;;;38.55;;
42834;SDS011;29335;50.526;30.458;2022-11-21T02:02:49;173.23;;;30.45;;
42834;SDS011;29335;50.526;30.458;2022-11-21T02:05:21;175.20;;;29.10;;
42834;SDS011;29335;50.526;30.458;2022-11-21T02:07:51;201.40;;;29.38;;
42834;SDS011;29335;50.526;30.458;2022-11-21T02:10:24;140.20;;;29.17;;
42834;SDS011;29335;50.526;30.458;2022-11-21T02:12:51;266.20;;;34.28;;
42834;SDS011;29335;50.526;30.458;2022-11-21T02:15:18;385.30;;;40.00;;
42834;SDS011;29335;50.526;30.458;2022-11-21T02:17:52;467.15;;;46.55;;
42834;SDS011;29335;50.526;30.458;2022-11-21T02:20:18;148.65;;;28.27;;
42834;SDS011;29335;50.526;30.458;2022-11-21T02:25:28;259.30;;;35.30;;
42834;SDS011;29335;50.526;30.458;2022-11-21T02:27:57;237.50;;;32.97;;
42834;SDS011;29335;50.526;30.458;2022-11-21T02:30:28;315.42;;;35.95;;
42834;SDS011;29335;50.526;30.458;2022-11-21T02:32:56;512.83;;;48.42;;
42834;SDS011;29335;50.526;30.458;2022-11-21T02:35:22;615.72;;;60.38;;
42834;SDS011;29335;50.526;30.458;2022-11-21T02:37:53;225.32;;;32.33;;
42834;SDS011;29335;50.526;30.458;2022-11-21T02:40:36;323.27;;;38.58;;
42834;SDS011;29335;50.526;30.458;2022-11-21T02:45:41;346.02;;;41.85;;
42834;SDS011;29335;50.526;30.458;2022-11-21T02:48:08;726.35;;;61.60;;
42834;SDS011;29335;50.526;30.458;2022-11-21T02:50:35;821.35;;;77.80;;
42834;SDS011;29335;50.526;30.458;2022-11-21T02:53:12;520.85;;;46.80;;
42834;SDS011;29335;50.526;30.458;2022-11-21T02:55:40;199.05;;;31.75;;
42834;SDS011;29335;50.526;30.458;2022-11-21T02:58:05;189.02;;;30.50;;
42834;SDS011;29335;50.526;30.458;2022-11-21T03:00:32;479.50;;;46.60;;
42834;SDS011;29335;50.526;30.458;2022-11-21T03:02:59;606.63;;;58.30;;
42834;SDS011;29335;50.526;30.458;2022-11-21T03:05:25;168.45;;;30.55;;
42834;SDS011;29335;50.526;30.458;2022-11-21T03:07:51;281.38;;;34.50;;
42834;SDS011;29335;50.526;30.458;2022-11-21T03:10:17;708.40;;;63.40;;
42834;SDS011;29335;50.526;30.458;2022-11-21T03:12:42;443.20;;;43.35;;
42834;SDS011;29335;50.526;30.458;2022-11-21T03:15:09;699.45;;;69.50;;
42834;SDS011;29335;50.526;30.458;2022-11-21T03:17:38;594.35;;;53.15;;
42834;SDS011;29335;50.526;30.458;2022-11-21T03:20:04;455.85;;;44.40;;
42834;SDS011;29335;50.526;30.458;2022-11-21T03:22:30;580.45;;;56.50;;
42834;SDS011;29335;50.526;30.458;2022-11-21T03:24:56;186.00;;;32.00;;
42834;SDS011;29335;50.526;30.458;2022-11-21T03:27:22;202.15;;;32.95;;
42834;SDS011;29335;50.526;30.458;2022-11-21T03:29:48;101.10;;;26.55;;
42834;SDS011;29335;50.526;30.458;2022-11-21T03:39:56;72.00;;;23.85;;
42834;SDS011;29335;50.526;30.458;2022-11-21T03:42:21;137.35;;;27.15;;
42834;SDS011;29335;50.526;30.458;2022-11-21T03:44:47;163.38;;;29.10;;
42834;SDS011;29335;50.526;30.458;2022-11-21T03:47:12;573.70;;;57.45;;
42834;SDS011;29335;50.526;30.458;2022-11-21T03:49:38;275.88;;;33.20;;
42834;SDS011;29335;50.526;30.458;2022-11-21T03:52:03;699.97;;;63.88;;
42834;SDS011;29335;50.526;30.458;2022-11-21T03:54:29;777.63;;;71.40;;
42834;SDS011;29335;50.526;30.458;2022-11-21T03:56:55;235.73;;;34.35;;
42834;SDS011;29335;50.526;30.458;2022-11-21T03:59:20;440.20;;;41.75;;
42834;SDS011;29335;50.526;30.458;2022-11-21T04:01:46;194.00;;;31.33;;
42834;SDS011;29335;50.526;30.458;2022-11-21T04:04:11;361.95;;;40.22;;
42834;SDS011;29335;50.526;30.458;2022-11-21T04:06:37;353.77;;;37.08;;
42834;SDS011;29335;50.526;30.458;2022-11-21T04:09:03;182.35;;;28.63;;
42834;SDS011;29335;50.526;30.458;2022-11-21T04:11:28;289.80;;;38.05;;
42834;SDS011;29335;50.526;30.458;2022-11-21T04:13:54;352.85;;;40.10;;
42834;SDS011;29335;50.526;30.458;2022-11-21T04:16:19;128.38;;;26.92;;
42834;SDS011;29335;50.526;30.458;2022-11-21T04:18:45;546.97;;;50.83;;
42834;SDS011;29335;50.526;30.458;2022-11-21T04:21:11;343.95;;;38.15;;
42834;SDS011;29335;50.526;30.458;2022-11-21T04:23:36;584.33;;;48.28;;
42834;SDS011;29335;50.526;30.458;2022-11-21T04:26:02;276.55;;;33.53;;
42834;SDS011;29335;50.526;30.458;2022-11-21T04:28:28;173.00;;;29.17;;
42834;SDS011;29335;50.526;30.458;2022-11-21T04:30:53;241.00;;;33.08;;
42834;SDS011;29335;50.526;30.458;2022-11-21T04:33:19;328.40;;;36.20;;
42834;SDS011;29335;50.526;30.458;2022-11-21T04:35:45;339.48;;;36.58;;
42834;SDS011;29335;50.526;30.458;2022-11-21T04:38:11;275.63;;;35.95;;
42834;SDS011;29335;50.526;30.458;2022-11-21T04:40:38;189.82;;;31.27;;
42834;SDS011;29335;50.526;30.458;2022-11-21T04:43:04;226.65;;;34.55;;
42834;SDS011;29335;50.526;30.458;2022-11-21T04:45:29;78.95;;;25.85;;
42834;SDS011;29335;50.526;30.458;2022-11-21T04:47:55;257.48;;;34.47;;
42834;SDS011;29335;50.526;30.458;2022-11-21T04:50:21;100.47;;;26.38;;
42834;SDS011;29335;50.526;30.458;2022-11-21T04:52:50;181.55;;;29.17;;
42834;SDS011;29335;50.526;30.458;2022-11-21T04:55:16;59.25;;;23.38;;
42834;SDS011;29335;50.526;30.458;2022-11-21T04:57:43;86.45;;;26.23;;
42834;SDS011;29335;50.526;30.458;2022-11-21T05:00:09;94.28;;;25.00;;
42834;SDS011;29335;50.526;30.458;2022-11-21T05:02:35;94.85;;;25.77;;
42834;SDS011;29335;50.526;30.458;2022-11-21T05:05:01;118.78;;;28.67;;
42834;SDS011;29335;50.526;30.458;2022-11-21T05:07:27;70.97;;;24.77;;
42834;SDS011;29335;50.526;30.458;2022-11-21T05:09:52;92.93;;;25.98;;
42834;SDS011;29335;50.526;30.458;2022-11-21T05:12:18;127.40;;;29.58;;
42834;SDS011;29335;50.526;30.458;2022-11-21T05:15:02;751.40;;;73.55;;
42834;SDS011;29335;50.526;30.458;2022-11-21T05:17:28;189.68;;;33.20;;
42834;SDS011;29335;50.526;30.458;2022-11-21T05:19:54;136.23;;;28.80;;
42834;SDS011;29335;50.526;30.458;2022-11-21T05:22:19;190.07;;;33.15;;
42834;SDS011;29335;50.526;30.458;2022-11-21T05:24:45;162.88;;;31.55;;
42834;SDS011;29335;50.526;30.458;2022-11-21T05:27:11;447.27;;;46.15;;
42834;SDS011;29335;50.526;30.458;2022-11-21T05:29:36;271.45;;;37.40;;
42834;SDS011;29335;50.526;30.458;2022-11-21T05:32:02;80.57;;;25.33;;
42834;SDS011;29335;50.526;30.458;2022-11-21T05:34:27;145.23;;;28.05;;
42834;SDS011;29335;50.526;30.458;2022-11-21T05:36:53;51.90;;;22.90;;
42834;SDS011;29335;50.526;30.458;2022-11-21T05:39:24;62.25;;;23.90;;
42834;SDS011;29335;50.526;30.458;2022-11-21T05:41:50;60.83;;;22.45;;
42834;SDS011;29335;50.526;30.458;2022-11-21T05:44:16;129.65;;;28.27;;
42834;SDS011;29335;50.526;30.458;2022-11-21T05:46:42;103.03;;;25.80;;
42834;SDS011;29335;50.526;30.458;2022-11-21T05:49:09;342.83;;;40.22;;
42834;SDS011;29335;50.526;30.458;2022-11-21T05:51:35;247.10;;;35.50;;
42834;SDS011;29335;50.526;30.458;2022-11-21T05:54:00;395.05;;;44.08;;
42834;SDS011;29335;50.526;30.458;2022-11-21T05:56:26;58.35;;;23.30;;
42834;SDS011;29335;50.526;30.458;2022-11-21T05:58:55;75.40;;;25.15;;
42834;SDS011;29335;50.526;30.458;2022-11-21T06:01:23;54.92;;;23.50;;
42834;SDS011;29335;50.526;30.458;2022-11-21T06:04:08;53.55;;;22.83;;
42834;SDS011;29335;50.526;30.458;2022-11-21T06:06:34;57.20;;;23.77;;
42834;SDS011;29335;50.526;30.458;2022-11-21T06:09:00;82.53;;;23.52;;
42834;SDS011;29335;50.526;30.458;2022-11-21T06:11:26;82.25;;;25.70;;
42834;SDS011;29335;50.526;30.458;2022-11-21T06:13:52;61.95;;;24.75;;
42834;SDS011;29335;50.526;30.458;2022-11-21T06:16:18;237.75;;;35.83;;
42834;SDS011;29335;50.526;30.458;2022-11-21T06:18:45;272.23;;;34.83;;
42834;SDS011;29335;50.526;30.458;2022-11-21T06:21:13;360.50;;;44.90;;
42834;SDS011;29335;50.526;30.458;2022-11-21T06:23:40;171.13;;;30.77;;
42834;SDS011;29335;50.526;30.458;2022-11-21T06:26:07;170.15;;;31.17;;
42834;SDS011;29335;50.526;30.458;2022-11-21T06:28:36;352.08;;;40.03;;
42834;SDS011;29335;50.526;30.458;2022-11-21T06:33:35;100.22;;;27.10;;
42834;SDS011;29335;50.526;30.458;2022-11-21T06:36:08;228.43;;;33.85;;
42834;SDS011;29335;50.526;30.458;2022-11-21T06:38:35;126.22;;;30.77;;
42834;SDS011;29335;50.526;30.458;2022-11-21T06:41:11;65.72;;;25.15;;
42834;SDS011;29335;50.526;30.458;2022-11-21T06:43:39;56.67;;;25.08;;
42834;SDS011;29335;50.526;30.458;2022-11-21T06:46:05;504.20;;;52.85;;
42834;SDS011;29335;50.526;30.458;2022-11-21T06:48:31;338.25;;;39.42;;
42834;SDS011;29335;50.526;30.458;2022-11-21T06:51:02;220.48;;;33.25;;
42834;SDS011;29335;50.526;30.458;2022-11-21T06:53:36;238.13;;;35.15;;
42834;SDS011;29335;50.526;30.458;2022-11-21T06:56:02;337.58;;;42.17;;
42834;SDS011;29335;50.526;30.458;2022-11-21T06:58:28;182.60;;;31.38;;
42834;SDS011;29335;50.526;30.458;2022-11-21T07:00:54;113.30;;;27.10;;
42834;SDS011;29335;50.526;30.458;2022-11-21T07:03:20;100.07;;;26.25;;
42834;SDS011;29335;50.526;30.458;2022-11-21T07:05:47;331.85;;;37.08;;
42834;SDS011;29335;50.526;30.458;2022-11-21T10:39:27;30.35;;;18.95;;
42834;SDS011;29335;50.526;30.458;2022-11-21T10:44:48;31.23;;;19.02;;
42834;SDS011;29335;50.526;30.458;2022-11-21T10:47:33;33.08;;;17.48;;
42834;SDS011;29335;50.526;30.458;2022-11-21T10:52:33;26.02;;;16.08;;
42834;SDS011;29335;50.526;30.458;2022-11-21T10:57:40;23.75;;;15.48;;
42834;SDS011;29335;50.526;30.458;2022-11-21T11:00:22;24.80;;;15.60;;
42834;SDS011;29335;50.526;30.458;2022-11-21T11:05:24;21.30;;;11.90;;
42834;SDS011;29335;50.526;30.458;2022-11-21T11:08:02;24.80;;;17.17;;
42834;SDS011;29335;50.526;30.458;2022-11-21T11:10:30;30.30;;;19.73;;
42834;SDS011;29335;50.526;30.458;2022-11-21T11:12:57;31.25;;;20.20;;
42834;SDS011;29335;50.526;30.458;2022-11-21T11:15:57;27.15;;;18.83;;
42834;SDS011;29335;50.526;30.458;2022-11-21T11:18:41;23.13;;;15.43;;
42834;SDS011;29335;50.526;30.458;2022-11-21T11:21:29;22.52;;;13.07;;
42834;SDS011;29335;50.526;30.458;2022-11-21T11:26:33;24.17;;;14.68;;
42834;SDS011;29335;50.526;30.458;2022-11-21T11:34:21;20.38;;;14.60;;
42834;SDS011;29335;50.526;30.458;2022-11-21T11:37:18;19.88;;;13.05;;
42834;SDS011;29335;50.526;30.458;2022-11-21T11:48:39;20.20;;;12.27;;
42834;SDS011;29335;50.526;30.458;2022-11-21T11:53:56;12.45;;;8.73;;
42834;SDS011;29335;50.526;30.458;2022-11-21T11:56:31;13.23;;;9.55;;
42834;SDS011;29335;50.526;30.458;2022-11-21T11:59:02;16.17;;;10.85;;
42834;SDS011;29335;50.526;30.458;2022-11-21T12:01:41;16.02;;;9.90;;
42834;SDS011;29335;50.526;30.458;2022-11-21T12:04:12;16.33;;;10.02;;
42834;SDS011;29335;50.526;30.458;2022-11-21T12:06:59;15.27;;;9.77;;
42834;SDS011;29335;50.526;30.458;2022-11-21T12:09:47;17.65;;;10.85;;
42834;SDS011;29335;50.526;30.458;2022-11-21T12:12:35;15.70;;;10.25;;
42834;SDS011;29335;50.526;30.458;2022-11-21T12:15:15;14.70;;;10.02;;
42834;SDS011;29335;50.526;30.458;2022-11-21T12:48:18;16.38;;;11.00;;
42834;SDS011;29335;50.526;30.458;2022-11-21T12:56:53;10.60;;;7.18;;
42834;SDS011;29335;50.526;30.458;2022-11-21T16:21:23;10.05;;;6.93;;
42834;SDS011;29335;50.526;30.458;2022-11-21T16:23:49;7.38;;;5.65;;
42834;SDS011;29335;50.526;30.458;2022-11-21T16:26:16;6.55;;;4.65;;
42834;SDS011;29335;50.526;30.458;2022-11-21T16:28:42;7.10;;;4.82;;
42834;SDS011;29335;50.526;30.458;2022-11-21T16:31:21;5.18;;;4.15;;
42834;SDS011;29335;50.526;30.458;2022-11-21T16:33:51;6.45;;;4.82;;
42834;SDS011;29335;50.526;30.458;2022-11-21T16:36:21;6.68;;;5.00;;
42834;SDS011;29335;50.526;30.458;2022-11-21T16:38:48;5.30;;;3.85;;
42834;SDS011;29335;50.526;30.458;2022-11-21T16:41:18;6.57;;;3.97;;
42834;SDS011;29335;50.526;30.458;2022-11-21T16:43:49;8.43;;;5.25;;
42834;SDS011;29335;50.526;30.458;2022-11-21T16:46:19;4.30;;;3.42;;
42834;SDS011;29335;50.526;30.458;2022-11-21T16:48:47;8.13;;;5.55;;
42834;SDS011;29335;50.526;30.458;2022-11-21T16:51:16;6.50;;;4.93;;
42834;SDS011;29335;50.526;30.458;2022-11-21T16:53:44;5.97;;;4.10;;
42834;SDS011;29335;50.526;30.458;2022-11-21T16:56:11;7.40;;;5.38;;
42834;SDS011;29335;50.526;30.458;2022-11-21T16:58:37;6.85;;;4.55;;
42834;SDS011;29335;50.526;30.458;2022-11-21T17:01:11;6.38;;;4.72;;
42834;SDS011;29335;50.526;30.458;2022-11-21T17:03:39;7.78;;;4.38;;
42834;SDS011;29335;50.526;30.458;2022-11-21T17:06:06;7.30;;;5.15;;
42834;SDS011;29335;50.526;30.458;2022-11-21T17:08:33;6.60;;;3.85;;
42834;SDS011;29335;50.526;30.458;2022-11-21T17:11:21;6.13;;;4.15;;
42834;SDS011;29335;50.526;30.458;2022-11-21T17:13:47;6.55;;;4.35;;
42834;SDS011;29335;50.526;30.458;2022-11-21T17:16:28;6.00;;;4.60;;
42834;SDS011;29335;50.526;30.458;2022-11-21T17:21:39;6.80;;;5.45;;
42834;SDS011;29335;50.526;30.458;2022-11-21T17:24:05;6.65;;;5.35;;
42834;SDS011;29335;50.526;30.458;2022-11-21T17:26:30;6.80;;;5.20;;
42834;SDS011;29335;50.526;30.458;2022-11-21T17:29:01;7.97;;;5.55;;
42834;SDS011;29335;50.526;30.458;2022-11-21T17:31:29;6.20;;;4.72;;
42834;SDS011;29335;50.526;30.458;2022-11-21T17:33:56;5.60;;;4.13;;
42834;SDS011;29335;50.526;30.458;2022-11-21T17:36:23;6.43;;;4.00;;
42834;SDS011;29335;50.526;30.458;2022-11-21T17:38:51;6.30;;;4.53;;
42834;SDS011;29335;50.526;30.458;2022-11-21T17:41:18;5.05;;;3.83;;
42834;SDS011;29335;50.526;30.458;2022-11-21T17:43:45;7.25;;;4.78;;
42834;SDS011;29335;50.526;30.458;2022-11-21T17:46:13;6.90;;;4.72;;
42834;SDS011;29335;50.526;30.458;2022-11-21T17:48:41;5.40;;;3.70;;
42834;SDS011;29335;50.526;30.458;2022-11-21T17:51:09;6.85;;;4.75;;
42834;SDS011;29335;50.526;30.458;2022-11-21T17:53:37;4.68;;;3.78;;
42834;SDS011;29335;50.526;30.458;2022-11-21T17:56:06;6.43;;;4.45;;
42834;SDS011;29335;50.526;30.458;2022-11-21T18:03:44;6.15;;;4.45;;
42834;SDS011;29335;50.526;30.458;2022-11-21T18:06:13;6.20;;;4.07;;
42834;SDS011;29335;50.526;30.458;2022-11-21T18:08:52;6.22;;;4.72;;
42834;SDS011;29335;50.526;30.458;2022-11-21T18:11:20;5.88;;;3.85;;
42834;SDS011;29335;50.526;30.458;2022-11-21T18:13:46;6.38;;;4.53;;
42834;SDS011;29335;50.526;30.458;2022-11-21T18:16:13;7.68;;;5.47;;
42834;SDS011;29335;50.526;30.458;2022-11-21T18:18:44;6.82;;;5.25;;
42834;SDS011;29335;50.526;30.458;2022-11-21T18:21:14;9.68;;;5.63;;
42834;SDS011;29335;50.526;30.458;2022-11-21T18:23:45;7.55;;;5.13;;
42834;SDS011;29335;50.526;30.458;2022-11-21T18:26:14;8.95;;;5.75;;
42834;SDS011;29335;50.526;30.458;2022-11-21T18:28:44;7.00;;;4.50;;
42834;SDS011;29335;50.526;30.458;2022-11-21T18:33:49;8.98;;;5.90;;
42834;SDS011;29335;50.526;30.458;2022-11-21T18:36:16;9.75;;;5.97;;
42834;SDS011;29335;50.526;30.458;2022-11-21T18:41:15;7.55;;;5.38;;
42834;SDS011;29335;50.526;30.458;2022-11-21T18:43:52;7.72;;;4.80;;
42834;SDS011;29335;50.526;30.458;2022-11-21T18:46:19;10.10;;;6.30;;
42834;SDS011;29335;50.526;30.458;2022-11-21T18:48:52;12.18;;;8.40;;
42834;SDS011;29335;50.526;30.458;2022-11-21T18:51:32;16.63;;;10.48;;
42834;SDS011;29335;50.526;30.458;2022-11-21T18:56:34;10.93;;;7.65;;
42834;SDS011;29335;50.526;30.458;2022-11-21T19:01:38;10.68;;;6.40;;
42834;SDS011;29335;50.526;30.458;2022-11-21T19:04:06;17.23;;;10.05;;
42834;SDS011;29335;50.526;30.458;2022-11-21T19:06:33;11.82;;;7.72;;
42834;SDS011;29335;50.526;30.458;2022-11-21T19:08:59;10.60;;;7.60;;
42834;SDS011;29335;50.526;30.458;2022-11-21T19:11:28;10.27;;;6.95;;
42834;SDS011;29335;50.526;30.458;2022-11-21T19:13:59;13.13;;;8.45;;
42834;SDS011;29335;50.526;30.458;2022-11-21T19:16:26;9.63;;;6.03;;
42834;SDS011;29335;50.526;30.458;2022-11-21T19:18:54;7.45;;;5.32;;
42834;SDS011;29335;50.526;30.458;2022-11-21T19:21:21;8.55;;;5.25;;
42834;SDS011;29335;50.526;30.458;2022-11-21T19:23:46;9.43;;;5.70;;
42834;SDS011;29335;50.526;30.458;2022-11-21T19:26:16;7.28;;;5.28;;
42834;SDS011;29335;50.526;30.458;2022-11-21T19:28:45;5.47;;;4.05;;
42834;SDS011;29335;50.526;30.458;2022-11-21T19:31:12;8.40;;;5.13;;
42834;SDS011;29335;50.526;30.458;2022-11-21T19:33:41;5.45;;;3.45;;
42834;SDS011;29335;50.526;30.458;2022-11-21T19:36:10;6.07;;;4.35;;
42834;SDS011;29335;50.526;30.458;2022-11-21T19:38:40;9.23;;;5.13;;
42834;SDS011;29335;50.526;30.458;2022-11-21T19:41:09;7.38;;;5.95;;
42834;SDS011;29335;50.526;30.458;2022-11-21T19:43:53;11.48;;;7.35;;
42834;SDS011;29335;50.526;30.458;2022-11-21T19:46:22;3.53;;;2.83;;
42834;SDS011;29335;50.526;30.458;2022-11-21T19:48:51;3.80;;;2.72;;
42834;SDS011;29335;50.526;30.458;2022-11-21T19:51:18;5.05;;;2.45;;
42834;SDS011;29335;50.526;30.458;2022-11-21T19:53:45;5.18;;;3.63;;
42834;SDS011;29335;50.526;30.458;2022-11-21T19:58:40;4.10;;;2.97;;
42834;SDS011;29335;50.526;30.458;2022-11-21T20:01:08;4.15;;;2.83;;
42834;SDS011;29335;50.526;30.458;2022-11-21T20:03:36;5.38;;;3.75;;
42834;SDS011;29335;50.526;30.458;2022-11-21T20:06:13;4.07;;;2.88;;
42834;SDS011;29335;50.526;30.458;2022-11-21T20:08:47;4.22;;;2.88;;
42834;SDS011;29335;50.526;30.458;2022-11-21T20:11:16;4.60;;;2.58;;
42834;SDS011;29335;50.526;30.458;2022-11-21T20:13:44;3.08;;;2.28;;
42834;SDS011;29335;50.526;30.458;2022-11-21T20:16:24;2.20;;;1.70;;
42834;SDS011;29335;50.526;30.458;2022-11-21T20:18:52;3.58;;;2.30;;
42834;SDS011;29335;50.526;30.458;2022-11-21T20:21:21;2.75;;;1.70;;
